VTSG

Krabi Airport

Krabi, Thailand
TAF VTSG 182300Z 1900/1924 08008KT 9999 FEW020 PROB40 TEMPO 1906/1910 VRB10G20KT 5000 TSRA FEW018TCU SCT020 BKN100 BECMG 1912/1914 00000KT 8000
Issued Valid From Valid To
Jan-18 @ 23:00 UTC
(3 hours ago)
Jan-19 @ 00:00 UTC
(2 hours ago)
Jan-20 @ 00:00 UTC
(in 22 hours)
Jan-19 @ 00:00 to Jan-19 @ 12:00
TAF VTSG 182300Z 1900/1924 08008KT 9999 FEW020
Wind Visibility Clouds
80° at 8 knots 10,000+ meters
  • Few at 2,000' AGL
Temporary  (Probability 40%) Jan-19 @ 06:00 to Jan-19 @ 10:00
PROB40 TEMPO 1906/1910 VRB10G20KT 5000 TSRA FEW018TCU SCT020 BKN100
Wind Visibility Clouds Conditions
Variable at 10 knots
 Gusting to 20 knots
5,005 meters
  • Few at 1,800' AGL
  • Scattered at 2,000' AGL
  • Broken at 10,000' AGL
  • Thunderstorm
  • Rain
Becoming Jan-19 @ 12:00 to Jan-20 @ 00:00
BECMG 1912/1914 00000KT 8000
Visibility Clouds
7,998 meters
  • Few at 2,000' AGL
TAF VTSG 182300Z 1900/1924 08008KT 9999 FEW020 PROB40 TEMPO 1906/1910 VRB10G20KT 5000 TSRA FEW018TCU SCT020 BKN100 BECMG 1912/1914 00000KT 8000
Issued Jan-18 @ 23:00 UTC
(3 hours ago)
Valid From Jan-19 @ 00:00 UTC
(2 hours ago)
Valid To Jan-20 @ 00:00 UTC
(in 22 hours)
Jan-19 @ 00:00 - Jan-19 @ 12:00
Wind Visibility
80° at 8 knots 10,000+ meters
Clouds
  • Few at 2,000' AGL
Probability 40% Temporary Jan-19 @ 06:00 - Jan-19 @ 10:00
Wind Visibility
Variable at 10 knots
 Gusting to 20 knots
5,005 meters
Clouds
  • Few at 1,800' AGL
  • Scattered at 2,000' AGL
  • Broken at 10,000' AGL
Conditions
  • Thunderstorm
  • Rain
Becoming Jan-19 @ 12:00 - Jan-20 @ 00:00
Clouds
  • Few at 2,000' AGL